Time;durP1;ratioP1;P1;durP2;ratioP2;P2;SDS_P1;SDS_P2;PMS_P1;PMS_P2;Temp;Humidity;BMP_temperature;BMP_pressure;BME280_temperature;BME280_humidity;BME280_pressure;Samples;Min_cycle;Max_cycle;Signal;HPM_P1;HPM_P2
2022/05/22 00:01:59;;;;;;;8.65;4.97;;;;;;;14.69;66.45;101850.19;5060093;28;20028;-88
2022/05/22 00:04:24;;;;;;;8.98;5.07;;;;;;;14.68;66.77;101851.09;5077819;28;20028;-88
2022/05/22 00:06:50;;;;;;;7.90;5.28;;;;;;;14.63;68.58;101845.09;5062887;28;20028;-88
2022/05/22 00:09:16;;;;;;;10.15;4.20;;;;;;;14.57;68.72;101849.81;5074187;28;20032;-88
2022/05/22 00:11:41;;;;;;;6.45;4.47;;;;;;;14.53;67.84;101844.59;5074740;28;20574;-88
2022/05/22 00:14:07;;;;;;;6.20;3.85;;;;;;;14.58;66.95;101840.88;5063711;28;20085;-88
2022/05/22 00:16:41;;;;;;;7.40;4.18;;;;;;;14.58;66.79;101840.88;5061024;28;20020;-88
2022/05/22 00:19:19;;;;;;;6.63;3.63;;;;;;;14.66;66.67;101846.78;5074089;28;20028;-88
2022/05/22 00:21:44;;;;;;;6.53;3.50;;;;;;;14.65;67.17;101843.25;5064295;28;20027;-88
2022/05/22 00:24:12;;;;;;;7.85;4.40;;;;;;;14.64;67.30;101835.28;5062183;28;20016;-89
2022/05/22 00:26:39;;;;;;;9.02;4.35;;;;;;;14.48;68.41;101835.94;5068698;28;20752;-88
2022/05/22 00:29:05;;;;;;;5.60;4.53;;;;;;;14.32;69.72;101831.28;5064026;28;20395;-88
2022/05/22 00:31:30;;;;;;;6.93;4.40;;;;;;;14.14;70.14;101835.53;5064142;28;20036;-88
2022/05/22 00:33:55;;;;;;;10.43;4.80;;;;;;;13.86;70.99;101827.75;5075947;28;20352;-89
2022/05/22 00:36:21;;;;;;;6.05;4.60;;;;;;;13.85;70.82;101828.66;5078601;28;20539;-88
2022/05/22 00:38:46;;;;;;;8.32;5.18;;;;;;;13.83;70.02;101825.19;5059560;28;20582;-88
2022/05/22 00:41:13;;;;;;;9.35;5.30;;;;;;;13.71;70.82;101824.75;5065636;28;20146;-88
2022/05/22 00:43:41;;;;;;;10.10;5.40;;;;;;;13.69;70.77;101826.56;5079182;28;20034;-89
2022/05/22 00:46:11;;;;;;;15.65;5.60;;;;;;;13.79;69.92;101819.97;5083697;28;20105;-88
2022/05/22 00:48:38;;;;;;;8.98;5.68;;;;;;;13.83;70.34;101819.88;5082632;28;20470;-89
2022/05/22 00:51:14;;;;;;;12.18;5.40;;;;;;;13.95;69.85;101812.31;5068541;28;20047;-89
2022/05/22 00:53:48;;;;;;;9.80;5.90;;;;;;;13.92;69.13;101817.72;5064509;28;20040;-88
2022/05/22 00:56:18;;;;;;;9.55;5.47;;;;;;;13.92;69.11;101808.91;5063095;28;20458;-88
2022/05/22 00:58:45;;;;;;;10.50;6.32;;;;;;;13.95;68.69;101822.94;5061114;28;20024;-89
2022/05/22 01:01:10;;;;;;;10.35;5.75;;;;;;;13.87;69.43;101810.88;5085795;28;20405;-88
2022/05/22 01:03:36;;;;;;;9.73;5.53;;;;;;;13.99;69.69;101808.59;5062967;28;20012;-88
2022/05/22 01:06:04;;;;;;;11.25;6.15;;;;;;;14.07;68.99;101807.44;5082153;28;20036;-88
2022/05/22 01:08:31;;;;;;;10.88;5.90;;;;;;;14.10;70.18;101804.66;5078669;28;20571;-88
2022/05/22 01:11:03;;;;;;;6.95;5.25;;;;;;;14.11;68.27;101801.06;5068236;28;20051;-88
2022/05/22 01:13:36;;;;;;;12.68;6.03;;;;;;;14.08;68.28;101799.38;5069298;28;20557;-88
2022/05/22 01:16:04;;;;;;;10.18;5.78;;;;;;;13.96;68.30;101819.34;5063666;28;20032;-88
2022/05/22 01:18:30;;;;;;;13.02;6.18;;;;;;;13.90;68.66;101818.72;5063010;28;20025;-88
2022/05/22 01:20:56;;;;;;;14.10;6.05;;;;;;;13.94;68.36;101812.34;5064428;28;20036;-88
2022/05/22 01:23:23;;;;;;;9.60;6.00;;;;;;;13.98;68.24;101811.31;5061029;28;20251;-88
2022/05/22 01:25:48;;;;;;;10.77;6.07;;;;;;;13.97;71.57;101810.44;5072354;28;20612;-88
2022/05/22 01:28:16;;;;;;;11.02;5.90;;;;;;;13.91;71.43;101812.47;5076948;28;20041;-88
2022/05/22 01:30:41;;;;;;;11.60;6.40;;;;;;;13.78;68.41;101799.66;5079548;28;20339;-88
2022/05/22 01:33:06;;;;;;;8.50;6.43;;;;;;;13.71;68.82;101790.19;5078443;28;20611;-88
2022/05/22 01:35:32;;;;;;;11.82;6.85;;;;;;;13.63;68.83;101791.41;5069757;28;20517;-87
2022/05/22 01:37:59;;;;;;;12.43;6.50;;;;;;;13.36;69.48;101795.94;5077662;28;20032;-88
2022/05/22 01:40:24;;;;;;;12.10;6.57;;;;;;;13.21;70.58;101789.38;5078898;28;20043;-89
2022/05/22 01:42:50;;;;;;;12.40;6.45;;;;;;;13.25;70.05;101780.41;5059753;28;20024;-88
2022/05/22 01:45:19;;;;;;;12.23;6.72;;;;;;;13.26;70.05;101787.44;5067223;28;20032;-89
2022/05/22 01:47:45;;;;;;;12.15;6.22;;;;;;;13.25;71.33;101781.28;5078224;28;20143;-88
2022/05/22 01:50:12;;;;;;;11.93;6.72;;;;;;;13.29;71.74;101784.69;5079719;28;20100;-88
2022/05/22 01:52:39;;;;;;;11.05;6.50;;;;;;;13.28;70.10;101780.28;5079936;28;20423;-88
2022/05/22 01:55:05;;;;;;;10.35;6.30;;;;;;;13.21;70.58;101782.28;5081951;28;20028;-88
2022/05/22 01:57:31;;;;;;;12.35;6.53;;;;;;;13.14;72.23;101783.41;5068591;28;20218;-88
2022/05/22 01:59:56;;;;;;;10.88;6.40;;;;;;;13.13;72.18;101780.81;5073910;28;20103;-88
2022/05/22 02:02:22;;;;;;;9.50;6.18;;;;;;;13.09;71.39;101785.34;5064767;28;20031;-88
2022/05/22 02:04:48;;;;;;;11.73;6.07;;;;;;;13.04;71.62;101779.34;5079020;28;20077;-88
2022/05/22 02:09:57;;;;;;;10.77;6.57;;;;;;;13.06;69.69;101769.56;5080212;28;20035;-88
2022/05/22 02:12:22;;;;;;;12.00;6.25;;;;;;;13.08;69.80;101769.50;5078273;28;20028;-88
2022/05/22 02:14:47;;;;;;;10.10;6.32;;;;;;;13.06;70.05;101766.03;5072681;28;20499;-88
2022/05/22 02:17:13;;;;;;;8.35;6.38;;;;;;;13.01;72.87;101775.03;5077287;28;20028;-88
2022/05/22 02:19:38;;;;;;;10.40;6.72;;;;;;;12.88;72.65;101764.88;5077544;28;20039;-88
2022/05/22 02:22:04;;;;;;;8.68;6.50;;;;;;;12.77;72.52;101762.59;5065773;28;20036;-88
2022/05/22 02:24:29;;;;;;;11.40;5.97;;;;;;;12.66;71.99;101765.63;5078205;28;20085;-88
2022/05/22 02:26:54;;;;;;;12.70;6.00;;;;;;;12.58;72.99;101742.91;5065329;28;20499;-88
2022/05/22 02:29:20;;;;;;;7.47;5.20;;;;;;;12.62;73.50;101760.47;5083536;28;20027;-88
2022/05/22 02:31:45;;;;;;;8.77;5.70;;;;;;;12.56;71.87;101756.25;5063755;28;20036;-88
2022/05/22 02:34:10;;;;;;;8.35;6.28;;;;;;;12.52;71.73;101744.00;5076787;28;20234;-88
2022/05/22 02:36:35;;;;;;;10.35;5.65;;;;;;;12.57;71.18;101744.72;5061992;28;20757;-88
2022/05/22 02:39:01;;;;;;;6.78;5.45;;;;;;;12.62;70.93;101736.59;5062956;28;20735;-88
2022/05/22 02:41:26;;;;;;;13.43;6.22;;;;;;;12.58;70.82;101735.81;5077539;28;20044;-89
2022/05/22 02:43:52;;;;;;;13.15;6.30;;;;;;;12.61;70.32;101743.69;5063886;28;20025;-88
2022/05/22 02:46:19;;;;;;;6.35;5.18;;;;;;;12.55;73.13;101735.94;5068247;28;20101;-88
2022/05/22 02:48:45;;;;;;;8.13;5.57;;;;;;;12.44;71.55;101722.16;5076661;28;20446;-88
2022/05/22 02:51:13;;;;;;;8.60;5.45;;;;;;;12.43;74.40;101723.09;5060729;28;20070;-88
2022/05/22 02:53:38;;;;;;;9.55;4.95;;;;;;;12.35;71.50;101715.38;5060506;28;20084;-88
2022/05/22 02:56:15;;;;;;;9.65;5.85;;;;;;;12.40;71.41;101726.72;5079328;28;20474;-88
2022/05/22 02:58:41;;;;;;;6.93;5.15;;;;;;;12.34;70.89;101731.34;5076420;28;20028;-88
2022/05/22 03:01:06;;;;;;;10.27;5.95;;;;;;;12.33;71.58;101735.78;5076406;28;20448;-88
2022/05/22 03:03:33;;;;;;;10.82;5.50;;;;;;;12.34;70.99;101731.34;5064126;28;20031;-88
2022/05/22 03:06:44;;;;;;;9.63;5.47;;;;;;;12.34;71.08;101724.25;5059524;28;20385;-88
2022/05/22 03:08:45;;;;;;;9.07;5.10;;;;;;;12.35;74.15;101735.72;5065960;28;21591;-88
2022/05/22 03:11:11;;;;;;;5.65;4.35;;;;;;;12.28;73.50;101732.44;5080145;28;20114;-88
2022/05/22 03:13:37;;;;;;;4.68;4.20;;;;;;;12.22;74.21;101719.38;5062726;28;20020;-88
2022/05/22 03:16:03;;;;;;;4.20;3.78;;;;;;;12.24;72.72;101726.34;5076606;28;20059;-88
2022/05/22 03:18:28;;;;;;;4.13;3.72;;;;;;;12.27;71.92;101721.88;5079117;28;20480;-88
2022/05/22 03:20:54;;;;;;;5.30;4.05;;;;;;;12.29;73.91;101725.34;5065806;28;20458;-88
2022/05/22 03:23:19;;;;;;;5.65;4.28;;;;;;;12.29;72.09;101723.53;5059529;28;20062;-87
2022/05/22 03:25:46;;;;;;;6.15;5.55;;;;;;;12.26;74.24;101726.28;5057855;28;20043;-88
2022/05/22 03:28:13;;;;;;;9.40;5.93;;;;;;;12.19;73.83;101717.69;5075036;28;20493;-88
2022/05/22 03:30:38;;;;;;;8.82;5.28;;;;;;;12.16;71.82;101720.44;5077841;28;20142;-88
2022/05/22 03:33:03;;;;;;;8.13;6.22;;;;;;;12.08;73.15;101703.94;5075941;28;20391;-88
2022/05/22 03:35:29;;;;;;;9.93;6.43;;;;;;;12.04;74.13;101709.38;5076640;28;20119;-88
2022/05/22 03:37:54;;;;;;;8.38;6.03;;;;;;;11.92;73.22;101705.31;5074069;28;20399;-88
2022/05/22 03:40:20;;;;;;;9.05;6.13;;;;;;;11.91;72.29;101717.72;5079135;28;20028;-88
2022/05/22 03:42:45;;;;;;;8.48;6.38;;;;;;;11.89;72.00;101711.59;5075057;28;20108;-88
2022/05/22 03:45:11;;;;;;;11.75;7.05;;;;;;;11.86;72.37;101706.38;5056237;28;20028;-88
2022/05/22 03:47:38;;;;;;;8.88;6.93;;;;;;;11.86;72.13;101702.88;5059855;28;20058;-88
2022/05/22 03:50:05;;;;;;;8.35;6.60;;;;;;;11.92;71.49;101697.38;5055642;28;20047;-88
2022/05/22 03:52:36;;;;;;;7.55;6.28;;;;;;;11.93;71.63;101692.00;5075452;28;20031;-87
2022/05/22 03:55:03;;;;;;;8.07;6.50;;;;;;;11.82;72.05;101693.25;5059833;28;20029;-88
2022/05/22 03:57:28;;;;;;;9.43;6.05;;;;;;;11.66;72.10;101700.81;5061935;28;20056;-88
2022/05/22 03:59:54;;;;;;;8.70;5.68;;;;;;;11.69;73.60;101696.28;5066784;28;20028;-88
2022/05/22 04:02:19;;;;;;;9.25;5.40;;;;;;;11.72;71.66;101690.91;5061209;28;20028;-88
2022/05/22 04:04:44;;;;;;;7.65;6.47;;;;;;;11.82;72.23;101698.56;5075463;28;20129;-88
2022/05/22 04:07:10;;;;;;;8.88;6.28;;;;;;;11.86;72.69;101709.03;5067666;28;20059;-88
2022/05/22 04:09:35;;;;;;;11.00;6.38;;;;;;;11.84;72.10;101707.34;5054974;28;20033;-88
2022/05/22 04:12:06;;;;;;;9.02;6.10;;;;;;;11.82;72.27;101701.19;5077785;28;20127;-88
2022/05/22 04:14:31;;;;;;;10.75;6.35;;;;;;;11.75;72.16;101703.19;5060410;28;20052;-88
2022/05/22 04:16:56;;;;;;;11.27;6.90;;;;;;;11.67;72.63;101691.97;5057301;28;20060;-87
2022/05/22 04:19:21;;;;;;;8.10;6.32;;;;;;;11.70;72.20;101691.84;5079183;28;20032;-88
2022/05/22 04:21:47;;;;;;;8.05;6.47;;;;;;;11.79;72.21;101696.00;5075800;28;20032;-88
2022/05/22 04:26:56;;;;;;;10.23;7.43;;;;;;;11.69;73.23;101695.41;5072875;28;20090;-88
2022/05/22 04:29:21;;;;;;;7.53;5.93;;;;;;;11.81;72.01;101688.88;5062723;28;20487;-88
2022/05/22 04:31:46;;;;;;;13.38;7.00;;;;;;;11.93;72.45;101685.84;5058485;28;20081;-88
2022/05/22 04:34:11;;;;;;;12.38;7.30;;;;;;;12.00;72.54;101693.56;5061624;28;20134;-88
2022/05/22 04:36:37;;;;;;;8.05;6.72;;;;;;;12.04;72.23;101683.72;5063062;28;20039;-88
2022/05/22 04:39:02;;;;;;;10.60;7.20;;;;;;;12.11;72.11;101684.38;5056510;28;20025;-88
2022/05/22 04:41:28;;;;;;;11.65;8.20;;;;;;;12.22;75.41;101687.56;5076945;28;20028;-88
2022/05/22 04:43:53;;;;;;;11.50;7.55;;;;;;;12.26;72.47;101686.53;5063416;28;20498;-88
2022/05/22 04:46:18;;;;;;;11.90;8.20;;;;;;;12.34;72.24;101687.13;5075398;28;20127;-88
2022/05/22 04:48:44;;;;;;;14.73;8.43;;;;;;;12.36;73.02;101695.06;5074602;28;20043;-88
2022/05/22 04:51:09;;;;;;;17.17;9.48;;;;;;;12.40;72.60;101694.91;5075583;28;20024;-88
2022/05/22 04:53:35;;;;;;;14.57;9.63;;;;;;;12.44;73.05;101700.94;5059306;28;20653;-88
2022/05/22 04:56:00;;;;;;;13.10;9.30;;;;;;;12.42;73.53;101700.16;5077415;28;20027;-88
2022/05/22 04:58:25;;;;;;;14.23;9.65;;;;;;;12.46;73.10;101688.50;5077131;28;20478;-88
2022/05/22 05:00:51;;;;;;;13.15;9.50;;;;;;;12.48;73.54;101691.97;5063223;28;20032;-88
2022/05/22 05:03:17;;;;;;;14.75;10.27;;;;;;;12.45;73.69;101692.97;5060992;28;20020;-87
2022/05/22 05:05:42;;;;;;;18.42;10.25;;;;;;;12.55;72.92;101690.84;5078013;28;20074;-88
2022/05/22 05:08:07;;;;;;;13.55;9.82;;;;;;;12.69;73.02;101685.94;5075842;28;20245;-88
2022/05/22 05:10:33;;;;;;;15.68;10.05;;;;;;;12.81;72.51;101686.41;5081621;28;20043;-88
2022/05/22 05:13:00;;;;;;;14.35;10.07;;;;;;;12.93;71.92;101675.34;5090151;28;20027;-88
2022/05/22 05:15:25;;;;;;;17.73;10.48;;;;;;;13.01;72.25;101675.94;5079944;28;20031;-88
2022/05/22 05:17:51;;;;;;;15.63;9.93;;;;;;;13.15;71.29;101678.06;5083194;28;20028;-88
2022/05/22 05:20:23;;;;;;;17.33;10.25;;;;;;;13.17;71.71;101673.56;5064099;28;20060;-88
2022/05/22 05:22:49;;;;;;;14.48;10.15;;;;;;;13.26;71.36;101671.47;5078013;28;20367;-88
2022/05/22 05:25:15;;;;;;;15.98;10.13;;;;;;;13.34;71.22;101681.81;5065346;28;20054;-88
2022/05/22 05:27:41;;;;;;;15.77;10.63;;;;;;;13.38;71.18;101682.53;5068183;28;20035;-88
2022/05/22 05:30:07;;;;;;;17.02;10.55;;;;;;;13.46;71.20;101683.09;5065489;28;20047;-87
2022/05/22 05:32:32;;;;;;;13.85;11.40;;;;;;;13.51;71.47;101684.66;5076726;28;20023;-88
2022/05/22 05:35:00;;;;;;;12.55;10.95;;;;;;;13.56;71.02;101681.81;5080292;28;20509;-88
2022/05/22 05:37:26;;;;;;;15.43;11.75;;;;;;;13.61;71.30;101687.81;5064791;28;20495;-87
2022/05/22 05:39:52;;;;;;;20.08;11.50;;;;;;;13.59;71.83;101681.72;5079403;28;20043;-88
2022/05/22 05:42:18;;;;;;;20.20;11.30;;;;;;;13.65;71.36;101692.09;5075378;28;20035;-88
2022/05/22 05:44:43;;;;;;;17.15;11.48;;;;;;;13.67;71.24;101692.91;5081703;28;20032;-88
2022/05/22 05:47:09;;;;;;;18.92;13.20;;;;;;;13.67;71.95;101686.72;5048069;28;20084;-88
2022/05/22 05:49:36;;;;;;;16.58;10.98;;;;;;;13.66;71.18;101688.53;5043564;28;20036;-88
2022/05/22 05:52:03;;;;;;;18.00;12.38;;;;;;;13.70;71.24;101694.56;5044687;28;20029;-88
2022/05/22 05:54:28;;;;;;;19.55;12.32;;;;;;;13.75;71.99;101688.13;5043720;28;20025;-88
2022/05/22 05:56:53;;;;;;;22.27;12.93;;;;;;;13.74;72.27;101690.88;5041627;28;20490;-87
2022/05/22 05:59:19;;;;;;;16.88;12.50;;;;;;;13.71;72.01;101689.22;5045375;28;20271;-88
2022/05/22 06:01:44;;;;;;;17.23;11.68;;;;;;;13.79;71.21;101695.06;5042320;28;20032;-87
2022/05/22 06:04:09;;;;;;;18.15;12.15;;;;;;;13.89;71.52;101689.38;5044384;28;20029;-88
2022/05/22 06:06:34;;;;;;;17.92;12.15;;;;;;;14.01;70.79;101694.22;5041578;28;20530;-88
2022/05/22 06:09:00;;;;;;;19.02;12.07;;;;;;;14.14;70.87;101698.09;5041924;28;20033;-88
2022/05/22 06:11:25;;;;;;;16.17;12.07;;;;;;;14.30;70.11;101695.66;5040693;28;20121;-88
2022/05/22 06:13:51;;;;;;;20.55;12.45;;;;;;;14.42;69.89;101699.59;5043799;28;20112;-88
2022/05/22 06:16:17;;;;;;;16.70;11.82;;;;;;;14.47;69.06;101697.63;5042476;28;20051;-88
2022/05/22 06:18:43;;;;;;;15.70;11.50;;;;;;;14.42;68.86;101695.16;5044701;28;20065;-88
2022/05/22 06:21:14;;;;;;;15.90;11.93;;;;;;;14.54;69.33;101694.63;5043161;28;20480;-88
2022/05/22 06:23:40;;;;;;;19.77;12.27;;;;;;;14.62;69.58;101694.31;5043191;28;20087;-88
2022/05/22 06:26:10;;;;;;;14.98;11.45;;;;;;;14.73;69.26;101685.84;5044084;28;20013;-88
2022/05/22 06:28:36;;;;;;;15.57;11.38;;;;;;;14.85;68.79;101697.78;5042933;28;20112;-88
2022/05/22 06:31:06;;;;;;;19.02;12.95;;;;;;;14.85;69.40;101703.09;5041925;28;20186;-88
2022/05/22 06:33:32;;;;;;;17.52;12.25;;;;;;;14.94;68.81;101698.22;5041041;28;20648;-89
2022/05/22 06:35:58;;;;;;;19.88;12.73;;;;;;;15.09;67.63;101703.81;5043692;28;20033;-87
2022/05/22 06:41:11;;;;;;;19.05;12.35;;;;;;;15.39;67.21;101705.06;5044921;28;20047;-88
2022/05/22 06:43:37;;;;;;;19.10;11.07;;;;;;;15.60;67.87;101694.31;5043419;28;20480;-87
2022/05/22 06:46:05;;;;;;;19.52;11.85;;;;;;;15.74;66.63;101699.91;5041541;28;20049;-87
2022/05/22 06:48:31;;;;;;;18.00;11.63;;;;;;;15.76;67.01;101703.34;5042140;28;20025;-87
2022/05/22 06:50:56;;;;;;;22.60;11.02;;;;;;;15.86;65.20;101701.13;5037435;28;20107;-87
2022/05/22 06:53:22;;;;;;;17.05;11.70;;;;;;;16.14;65.47;101704.16;5044944;28;20079;-88
2022/05/22 06:55:48;;;;;;;18.50;11.98;;;;;;;16.23;65.36;101705.50;5042301;28;20071;-88
2022/05/22 06:58:14;;;;;;;18.65;11.90;;;;;;;16.14;65.35;101700.63;5038123;28;20025;-88
2022/05/22 07:00:39;;;;;;;15.07;10.80;;;;;;;16.26;63.70;101700.84;5041785;28;20099;-88
2022/05/22 07:03:05;;;;;;;15.07;11.07;;;;;;;16.38;64.02;101702.06;5041057;28;20527;-88
2022/05/22 07:05:30;;;;;;;15.82;10.73;;;;;;;16.51;65.22;101691.63;5040221;28;20488;-88
2022/05/22 07:07:55;;;;;;;16.67;11.35;;;;;;;16.62;64.27;101691.06;5039903;28;20028;-88
2022/05/22 07:11:38;;;;;;;15.07;10.38;;;;;;;16.69;62.58;101698.66;5039693;28;20031;-88
2022/05/22 07:13:11;;;;;;;14.68;10.05;;;;;;;16.81;62.76;101705.22;5040850;28;20128;-88
2022/05/22 07:15:37;;;;;;;17.95;10.18;;;;;;;16.78;62.41;101698.22;5043549;28;20039;-88
2022/05/22 07:18:02;;;;;;;17.58;10.88;;;;;;;16.80;61.73;101687.47;5041371;28;20028;-88
2022/05/22 07:20:28;;;;;;;16.58;11.18;;;;;;;17.03;62.32;101695.13;5041309;28;20454;-88
2022/05/22 07:22:53;;;;;;;21.10;11.20;;;;;;;17.22;61.65;101688.78;5044569;28;20029;-88
2022/05/22 07:25:18;;;;;;;18.15;10.90;;;;;;;17.46;61.49;101691.94;5042214;28;20031;-88
2022/05/22 07:27:44;;;;;;;12.60;10.07;;;;;;;17.69;60.06;101690.66;5043195;28;20045;-88
2022/05/22 07:30:10;;;;;;;16.50;10.43;;;;;;;17.95;59.34;101681.16;5044433;28;20033;-88
2022/05/22 07:32:35;;;;;;;16.52;10.55;;;;;;;18.28;58.39;101684.56;5042766;28;20049;-88
2022/05/22 07:35:00;;;;;;;16.52;9.88;;;;;;;18.72;58.40;101677.50;5041796;28;20075;-89
2022/05/22 07:37:26;;;;;;;17.35;10.48;;;;;;;18.95;57.75;101684.13;5040473;28;20040;-89
2022/05/22 07:39:51;;;;;;;14.73;9.55;;;;;;;19.06;56.56;101685.19;5043620;28;20526;-88
2022/05/22 07:42:17;;;;;;;14.55;10.48;;;;;;;19.08;55.39;101682.44;5041331;28;20067;-88
2022/05/22 07:44:43;;;;;;;19.42;10.25;;;;;;;19.44;56.54;101678.34;5043400;28;20017;-88
2022/05/22 07:47:09;;;;;;;15.85;9.98;;;;;;;19.72;55.51;101681.00;5057863;28;20079;-89
2022/05/22 07:52:19;;;;;;;10.98;8.43;;;;;;;19.92;52.19;101671.66;5066999;28;20059;-89
2022/05/22 07:54:44;;;;;;;13.80;9.05;;;;;;;20.22;52.19;101684.84;5068629;28;20032;-89
2022/05/22 07:57:09;;;;;;;10.68;7.85;;;;;;;20.53;51.50;101670.25;5064425;28;20364;-89
2022/05/22 07:59:37;;;;;;;14.07;8.18;;;;;;;21.07;49.68;101671.84;5064747;28;20110;-89
2022/05/22 08:02:03;;;;;;;13.38;7.45;;;;;;;21.10;46.54;101658.19;5065326;28;20025;-88
2022/05/22 08:04:30;;;;;;;12.20;6.68;;;;;;;21.47;46.09;101663.66;5064557;28;20522;-88
2022/05/22 08:06:55;;;;;;;9.07;6.50;;;;;;;21.85;45.47;101653.59;5057394;28;20024;-89
2022/05/22 08:09:21;;;;;;;8.98;5.15;;;;;;;22.56;42.89;101656.31;5053197;28;20051;-89
2022/05/22 08:11:46;;;;;;;9.70;5.15;;;;;;;22.85;41.23;101657.63;5066320;28;20039;-88
2022/05/22 08:14:11;;;;;;;10.20;5.65;;;;;;;23.45;41.13;101651.97;5067145;28;20020;-88
2022/05/22 08:16:37;;;;;;;7.32;4.40;;;;;;;23.73;39.18;101653.28;5063573;28;20032;-88
2022/05/22 08:19:03;;;;;;;7.35;3.30;;;;;;;23.71;40.21;101648.03;5069840;28;20072;-88
2022/05/22 08:21:28;;;;;;;6.90;3.17;;;;;;;23.88;39.06;101644.78;5064288;28;20053;-88
2022/05/22 08:23:54;;;;;;;10.63;4.00;;;;;;;24.27;36.57;101631.56;5066375;28;20151;-88
2022/05/22 08:26:19;;;;;;;8.20;4.32;;;;;;;24.01;38.10;101628.38;5062266;28;20029;-89
2022/05/22 08:28:45;;;;;;;7.22;3.95;;;;;;;23.89;37.49;101622.19;5066814;28;20106;-89
2022/05/22 08:31:11;;;;;;;8.10;3.65;;;;;;;23.79;36.86;101617.69;5065142;28;20079;-89
2022/05/22 08:33:37;;;;;;;8.25;3.58;;;;;;;24.03;36.20;101622.88;5072046;28;20028;-88
2022/05/22 08:36:03;;;;;;;9.80;4.03;;;;;;;24.08;37.42;101615.22;5062274;28;20047;-89
2022/05/22 08:38:29;;;;;;;8.57;4.07;;;;;;;24.67;37.70;101611.94;5066909;28;20113;-88
2022/05/22 08:41:06;;;;;;;11.20;4.88;;;;;;;25.37;37.39;101607.53;5064582;28;20089;-88
2022/05/22 08:43:41;;;;;;;7.68;4.03;;;;;;;25.87;34.62;101600.19;5070528;28;20028;-88
2022/05/22 08:46:11;;;;;;;9.63;4.38;;;;;;;25.68;34.99;101597.47;5074013;28;20507;-88
2022/05/22 08:48:50;;;;;;;7.53;3.47;;;;;;;26.21;34.56;101599.78;5069414;28;20031;-88
2022/05/22 08:51:25;;;;;;;9.70;3.80;;;;;;;26.06;34.61;101596.63;5061514;28;20035;-89
2022/05/22 08:53:55;;;;;;;10.07;4.13;;;;;;;26.20;34.94;101596.19;5062052;28;20147;-88
2022/05/22 08:59:26;;;;;;;13.02;4.30;;;;;;;27.31;35.11;101588.25;5072788;28;20212;-88
2022/05/22 09:02:03;;;;;;;9.10;4.55;;;;;;;26.49;32.22;101594.44;5067725;28;20040;-88
2022/05/22 09:04:33;;;;;;;11.90;4.88;;;;;;;25.70;33.42;101581.94;5065282;28;20476;-88
2022/05/22 09:07:17;;;;;;;9.45;4.97;;;;;;;25.99;35.83;101583.81;5063094;28;20037;-88
2022/05/22 09:09:46;;;;;;;8.68;4.57;;;;;;;26.03;35.76;101585.25;5065028;28;20039;-88
2022/05/22 09:12:31;;;;;;;9.55;5.18;;;;;;;25.50;36.27;101570.22;5073957;28;20020;-88
2022/05/22 09:15:20;;;;;;;9.60;4.80;;;;;;;24.91;37.50;101573.75;5065468;28;20093;-89
2022/05/22 09:18:21;;;;;;;9.93;5.28;;;;;;;23.86;39.42;101581.06;5069831;28;20483;-89
2022/05/22 09:20:55;;;;;;;10.23;5.22;;;;;;;23.74;38.33;101574.88;5071345;28;20042;-89
2022/05/22 09:23:48;;;;;;;11.85;5.10;;;;;;;24.02;38.94;101567.13;5064624;28;20027;-89
2022/05/22 09:26:34;;;;;;;10.43;5.15;;;;;;;24.52;39.65;101570.88;5066878;28;20028;-88
2022/05/22 09:29:21;;;;;;;12.25;5.63;;;;;;;24.72;37.06;101565.56;5063916;28;20036;-88
2022/05/22 09:32:20;;;;;;;8.68;5.22;;;;;;;24.99;37.91;101560.38;5070410;28;20093;-89
2022/05/22 09:35:05;;;;;;;10.85;5.57;;;;;;;25.33;37.45;101554.69;5064641;28;20036;-88
2022/05/22 09:37:46;;;;;;;10.63;4.90;;;;;;;25.77;35.91;101558.72;5069335;28;20024;-88
2022/05/22 09:40:28;;;;;;;15.68;6.30;;;;;;;25.91;34.47;101558.28;5061080;28;20032;-89
2022/05/22 09:43:03;;;;;;;10.15;5.75;;;;;;;25.97;34.49;101548.72;5064489;28;20515;-89
2022/05/22 09:45:47;;;;;;;11.80;5.30;;;;;;;25.92;33.56;101546.44;5067381;28;20514;-88
2022/05/22 09:48:37;;;;;;;9.75;5.38;;;;;;;25.87;35.24;101547.88;5081296;28;20035;-88
2022/05/22 09:51:36;;;;;;;11.27;6.40;;;;;;;25.15;36.59;101544.53;5083884;28;20426;-89
2022/05/22 09:54:14;;;;;;;11.93;6.32;;;;;;;25.31;35.74;101540.41;5072676;28;20529;-88
2022/05/22 09:56:52;;;;;;;12.32;6.18;;;;;;;25.44;33.80;101535.59;5064561;28;20063;-89
2022/05/22 09:59:30;;;;;;;15.55;7.32;;;;;;;25.28;33.53;101540.72;5071250;28;20510;-89
2022/05/22 10:02:00;;;;;;;12.63;6.85;;;;;;;25.08;33.51;101539.78;5059404;28;20031;-89
2022/05/22 10:05:00;;;;;;;10.60;6.25;;;;;;;25.31;34.96;101552.09;5077022;28;20070;-90
2022/05/22 10:07:52;;;;;;;11.95;6.43;;;;;;;25.65;35.19;101549.00;5085229;28;20475;-89
2022/05/22 10:10:44;;;;;;;8.80;6.45;;;;;;;25.81;34.29;101548.47;5078993;28;20475;-89
2022/05/22 10:13:21;;;;;;;8.77;6.50;;;;;;;25.69;34.89;101543.16;5072853;28;20032;-88
2022/05/22 10:16:02;;;;;;;11.75;6.47;;;;;;;25.80;34.19;101542.19;5074091;28;20028;-87
2022/05/22 10:18:52;;;;;;;11.00;7.00;;;;;;;26.06;33.98;101538.84;5078831;28;20024;-88
2022/05/22 10:21:41;;;;;;;10.80;6.88;;;;;;;25.50;35.51;101539.56;5084315;28;20024;-88
2022/05/22 10:24:28;;;;;;;12.50;6.95;;;;;;;25.76;32.60;101535.34;5081904;28;20020;-88
2022/05/22 10:27:02;;;;;;;13.73;7.10;;;;;;;26.31;32.34;101535.53;5073370;28;20043;-88
2022/05/22 10:29:41;;;;;;;9.43;7.10;;;;;;;26.22;32.13;101531.00;5069470;28;20031;-88
2022/05/22 10:32:16;;;;;;;9.40;5.68;;;;;;;26.02;34.65;101529.31;5084583;28;20036;-88
2022/05/22 10:34:45;;;;;;;10.75;5.65;;;;;;;26.31;32.76;101530.13;5080165;28;20035;-88
2022/05/22 10:37:49;;;;;;;7.80;5.90;;;;;;;26.67;32.98;101524.84;5080769;28;20452;-88
2022/05/22 10:40:18;;;;;;;10.98;6.10;;;;;;;26.38;31.42;101524.94;5042643;28;20511;-88
2022/05/22 10:42:49;;;;;;;13.27;6.93;;;;;;;25.86;32.26;101519.06;5076504;28;20039;-88
2022/05/22 10:45:26;;;;;;;8.50;5.75;;;;;;;26.41;32.08;101519.25;5082695;28;20487;-88
2022/05/22 10:47:53;;;;;;;11.40;6.05;;;;;;;26.42;32.72;101505.53;5074877;28;20052;-87
2022/05/22 10:50:27;;;;;;;12.77;6.68;;;;;;;26.47;32.95;101496.13;5079877;28;20042;-88
2022/05/22 10:52:54;;;;;;;9.02;5.80;;;;;;;26.88;31.32;101489.34;5076425;28;20158;-88
2022/05/22 10:55:28;;;;;;;11.25;6.03;;;;;;;27.43;32.42;101492.84;5078060;28;20059;-88
2022/05/22 10:57:56;;;;;;;9.52;6.10;;;;;;;27.74;30.18;101488.88;5065230;28;20062;-87
2022/05/22 11:00:22;;;;;;;11.90;5.50;;;;;;;28.03;29.29;101480.44;5057919;28;20020;-88
2022/05/22 11:02:47;;;;;;;10.20;6.18;;;;;;;27.99;29.30;101476.34;5078708;28;20043;-88
2022/05/22 11:05:17;;;;;;;11.60;6.03;;;;;;;28.06;29.60;101469.22;5079428;28;20031;-88
2022/05/22 11:07:49;;;;;;;9.60;5.50;;;;;;;28.14;32.29;101463.84;5060621;28;20024;-88
2022/05/22 11:10:16;;;;;;;;;;;;;;;27.92;32.27;101478.81;5065014;28;20387;-88
2022/05/22 11:12:41;;;;;;;14.02;5.85;;;;;;;27.95;31.90;101473.06;5079218;28;20579;-88
2022/05/22 11:15:15;;;;;;;10.27;6.38;;;;;;;27.76;29.49;101482.28;5080713;28;20024;-88
2022/05/22 11:17:41;;;;;;;12.95;6.53;;;;;;;28.03;28.14;101475.84;5079858;28;20112;-88
2022/05/22 11:20:27;;;;;;;10.00;6.40;;;;;;;28.19;30.14;101470.50;5066446;28;20042;-89
2022/05/22 11:23:06;;;;;;;11.50;6.22;;;;;;;28.05;29.76;101470.25;5065044;28;20410;-88
2022/05/22 11:25:53;;;;;;;10.50;5.75;;;;;;;28.41;30.56;101457.41;5062934;28;20506;-88
2022/05/22 11:28:30;;;;;;;14.38;7.28;;;;;;;28.33;28.40;101447.28;5078336;28;20031;-89
2022/05/22 11:31:12;;;;;;;11.38;6.30;;;;;;;28.19;30.37;101437.88;5075313;28;20336;-87
2022/05/22 11:33:49;;;;;;;12.52;7.03;;;;;;;27.16;32.17;101435.91;5077563;28;20055;-88
2022/05/22 11:36:42;;;;;;;11.07;6.93;;;;;;;27.19;32.83;101435.59;5078297;28;20044;-88
2022/05/22 11:39:23;;;;;;;14.15;6.78;;;;;;;27.55;30.95;101432.81;5078075;28;20024;-89
2022/05/22 11:41:53;;;;;;;10.02;7.05;;;;;;;27.77;30.67;101420.63;5075123;28;20396;-88
2022/05/22 11:44:43;;;;;;;14.33;7.40;;;;;;;27.87;29.70;101418.66;5075989;28;20262;-89